Time;durP1;ratioP1;P1;durP2;ratioP2;P2;SDS_P1;SDS_P2;PMS_P1;PMS_P2;Temp;Humidity;BMP_temperature;BMP_pressure;BME280_temperature;BME280_humidity;BME280_pressure;Samples;Min_cycle;Max_cycle;Signal;HPM_P1;HPM_P2
2022/07/16 00:02:30;;;;;;;;;;;16.20;99.90;;;;;;5029476;28;20040;-52
2022/07/16 00:04:56;;;;;;;6.57;3.50;;;16.20;99.90;;;;;;5091987;22;19920;-85
2022/07/16 00:07:22;;;;;;;4.60;2.78;;;16.20;99.90;;;;;;5077263;28;20074;-85
2022/07/16 00:09:48;;;;;;;6.20;3.58;;;16.20;99.90;;;;;;5033590;28;20501;-85
2022/07/16 00:12:14;;;;;;;5.18;3.92;;;16.20;99.90;;;;;;5067834;28;20044;-86
2022/07/16 00:14:40;;;;;;;6.22;3.90;;;16.30;99.90;;;;;;5038281;28;20064;-85
2022/07/16 00:17:06;;;;;;;6.90;4.13;;;16.20;99.90;;;;;;5056549;28;20528;-85
2022/07/16 00:19:34;;;;;;;6.28;3.80;;;16.30;99.90;;;;;;5039811;28;20036;-85
2022/07/16 00:22:00;;;;;;;8.10;4.20;;;16.20;99.90;;;;;;5044237;28;20147;-85
2022/07/16 00:24:26;;;;;;;6.07;3.80;;;16.30;99.90;;;;;;5056016;28;20659;-86
2022/07/16 00:26:52;;;;;;;8.48;4.43;;;16.30;99.90;;;;;;5066888;28;20127;-85
2022/07/16 00:29:22;;;;;;;9.27;3.00;;;16.20;99.90;;;;;;5078901;28;20032;-86
2022/07/16 00:31:48;;;;;;;6.55;2.90;;;16.30;99.90;;;;;;5069214;28;20554;-86
2022/07/16 00:34:15;;;;;;;8.05;3.47;;;16.30;99.90;;;;;;5073140;28;20132;-86
2022/07/16 00:36:41;;;;;;;6.72;2.90;;;16.30;99.90;;;;;;5071395;28;20806;-87
2022/07/16 00:39:09;;;;;;;6.30;2.80;;;16.30;99.90;;;;;;5056007;28;20036;-87
2022/07/16 00:41:39;;;;;;;5.70;2.50;;;16.20;99.90;;;;;;5056769;28;20036;-87
2022/07/16 00:44:10;;;;;;;6.25;2.17;;;16.20;99.90;;;;;;5070927;28;20224;-88
2022/07/16 00:46:37;;;;;;;6.07;2.10;;;16.20;99.90;;;;;;5082456;28;20044;-87
2022/07/16 00:49:04;;;;;;;11.48;2.90;;;16.20;99.90;;;;;;5054116;28;20028;-87
2022/07/16 00:51:35;;;;;;;9.95;2.72;;;16.10;99.90;;;;;;5064665;28;20128;-86
2022/07/16 00:54:04;;;;;;;8.63;2.28;;;16.10;99.90;;;;;;5075721;28;20032;-86
2022/07/16 00:56:30;;;;;;;5.75;1.98;;;16.10;99.90;;;;;;5070431;28;20115;-87
2022/07/16 00:58:56;;;;;;;11.75;2.58;;;16.10;99.90;;;;;;5057421;28;20127;-87
2022/07/16 01:01:22;;;;;;;11.10;2.70;;;16.20;99.90;;;;;;5052919;28;20204;-87
2022/07/16 01:03:51;;;;;;;9.45;2.38;;;16.10;99.90;;;;;;5049453;28;20048;-87
2022/07/16 01:06:18;;;;;;;8.98;2.05;;;16.10;99.90;;;;;;5068418;28;20036;-87
2022/07/16 01:08:46;;;;;;;6.82;2.00;;;16.10;99.90;;;;;;5050782;28;20036;-87
2022/07/16 01:11:16;;;;;;;8.93;2.25;;;16.10;99.90;;;;;;5069791;28;20044;-87
2022/07/16 01:13:43;;;;;;;6.75;1.88;;;16.10;99.90;;;;;;5067372;28;20135;-87
2022/07/16 01:16:10;;;;;;;10.88;2.22;;;16.10;99.90;;;;;;5072740;28;20036;-87
2022/07/16 01:18:37;;;;;;;4.97;1.90;;;16.10;99.90;;;;;;5069950;28;20071;-87
2022/07/16 01:21:04;;;;;;;5.32;1.83;;;16.10;99.90;;;;;;5055318;28;20395;-86
2022/07/16 01:23:30;;;;;;;8.10;2.05;;;16.10;99.90;;;;;;5080819;28;20135;-87
2022/07/16 01:25:56;;;;;;;9.40;2.25;;;16.10;99.90;;;;;;5075743;28;20119;-86
2022/07/16 01:28:22;;;;;;;5.82;1.88;;;16.10;99.90;;;;;;5072928;28;20064;-86
2022/07/16 01:30:49;;;;;;;7.95;1.80;;;16.10;99.90;;;;;;5065961;28;20032;-86
2022/07/16 01:33:30;;;;;;;6.72;1.35;;;16.10;99.90;;;;;;5084813;28;20043;-87
2022/07/16 01:36:03;;;;;;;5.25;1.60;;;16.00;99.90;;;;;;5089551;28;20105;-86
2022/07/16 01:38:29;;;;;;;4.78;1.48;;;16.00;99.90;;;;;;5079532;28;20474;-87
2022/07/16 01:40:55;;;;;;;5.10;1.63;;;16.00;99.90;;;;;;5059822;28;20118;-87
2022/07/16 01:43:27;;;;;;;4.38;1.60;;;16.00;99.90;;;;;;5090235;28;20048;-87
2022/07/16 01:45:54;;;;;;;4.18;1.55;;;15.90;99.90;;;;;;5075269;28;20059;-87
2022/07/16 01:48:21;;;;;;;5.72;1.67;;;15.90;99.90;;;;;;5075156;28;20056;-87
2022/07/16 01:50:48;;;;;;;3.97;1.88;;;15.80;99.90;;;;;;5065408;28;20510;-87
2022/07/16 01:53:14;;;;;;;5.60;2.00;;;15.80;99.90;;;;;;5062927;28;20475;-86
2022/07/16 01:55:40;;;;;;;9.05;1.90;;;15.80;99.90;;;;;;5075747;28;20478;-86
2022/07/16 01:58:08;;;;;;;11.13;2.03;;;15.80;99.90;;;;;;5072458;28;20082;-86
2022/07/16 02:00:35;;;;;;;3.75;1.50;;;15.80;99.90;;;;;;5052274;28;20089;-87
2022/07/16 02:03:01;;;;;;;4.85;1.77;;;15.80;99.90;;;;;;5056405;28;20516;-86
2022/07/16 02:05:27;;;;;;;4.90;1.70;;;15.70;99.90;;;;;;5060485;28;20109;-86
2022/07/16 02:07:53;;;;;;;5.40;1.52;;;15.70;99.90;;;;;;5076742;28;20067;-87
2022/07/16 02:10:19;;;;;;;5.47;1.90;;;15.70;99.90;;;;;;5056274;28;20044;-86
2022/07/16 02:12:45;;;;;;;8.02;2.17;;;15.70;99.90;;;;;;5072255;28;20403;-86
2022/07/16 02:15:11;;;;;;;6.40;2.17;;;15.70;99.90;;;;;;5056072;28;20037;-86
2022/07/16 02:17:37;;;;;;;7.53;1.95;;;15.60;99.90;;;;;;5083252;28;20040;-87
2022/07/16 02:20:05;;;;;;;8.00;2.20;;;15.60;99.90;;;;;;5071449;28;20067;-86
2022/07/16 02:22:31;;;;;;;8.13;2.47;;;15.60;99.90;;;;;;5067376;28;20066;-87
2022/07/16 02:24:57;;;;;;;6.75;2.85;;;15.60;99.90;;;;;;5077812;28;20036;-87
2022/07/16 02:27:22;;;;;;;5.60;2.10;;;15.60;99.90;;;;;;5038184;28;20047;-87
2022/07/16 02:29:48;;;;;;;4.85;2.10;;;15.60;99.90;;;;;;5058026;28;20090;-86
2022/07/16 02:32:14;;;;;;;6.82;2.13;;;15.60;99.90;;;;;;5060998;28;20529;-87
2022/07/16 02:34:40;;;;;;;4.90;2.05;;;15.60;99.90;;;;;;5067446;28;20115;-87
2022/07/16 02:37:06;;;;;;;10.40;1.92;;;15.50;99.90;;;;;;5073416;28;20067;-87
2022/07/16 02:39:32;;;;;;;6.65;2.17;;;15.50;99.90;;;;;;5058255;28;20123;-87
2022/07/16 02:41:58;;;;;;;10.23;2.42;;;15.50;99.90;;;;;;5053274;28;20036;-86
2022/07/16 02:44:24;;;;;;;4.97;2.13;;;15.60;99.90;;;;;;5057459;28;20036;-86
2022/07/16 02:46:50;;;;;;;9.50;2.10;;;15.50;99.90;;;;;;5056943;28;20040;-87
2022/07/16 02:49:15;;;;;;;5.32;1.85;;;15.50;99.90;;;;;;5037954;28;20498;-87
2022/07/16 02:51:41;;;;;;;8.32;2.42;;;15.50;99.90;;;;;;5053990;28;20039;-87
2022/07/16 02:54:07;;;;;;;3.70;1.70;;;15.50;99.90;;;;;;5042533;28;20508;-87
2022/07/16 02:56:33;;;;;;;6.78;2.15;;;15.50;99.90;;;;;;5052941;28;20410;-87
2022/07/16 02:58:59;;;;;;;6.28;2.22;;;15.50;99.90;;;;;;5069490;28;20044;-87
2022/07/16 03:01:24;;;;;;;5.90;2.15;;;15.50;99.90;;;;;;5065027;28;20044;-86
2022/07/16 03:03:51;;;;;;;3.88;1.77;;;15.50;99.90;;;;;;5043159;28;20372;-87
2022/07/16 03:06:17;;;;;;;7.93;3.10;;;15.40;99.90;;;;;;5074926;28;20048;-87
2022/07/16 03:08:43;;;;;;;9.70;2.10;;;15.40;99.90;;;;;;5073763;28;20036;-87
2022/07/16 03:11:09;;;;;;;7.18;2.20;;;15.30;99.90;;;;;;5095701;28;20054;-87
2022/07/16 03:13:35;;;;;;;9.18;2.33;;;15.30;99.90;;;;;;5051818;28;20056;-87
2022/07/16 03:16:01;;;;;;;5.22;2.08;;;15.20;99.90;;;;;;5062968;28;20051;-87
2022/07/16 03:18:27;;;;;;;5.53;2.20;;;15.20;99.90;;;;;;5077720;28;20047;-87
2022/07/16 03:20:53;;;;;;;7.72;3.05;;;14.80;99.90;;;;;;5073738;28;20032;-87
2022/07/16 03:23:19;;;;;;;6.97;2.42;;;15.10;99.90;;;;;;5056260;28;20047;-87
2022/07/16 03:25:45;;;;;;;7.15;2.65;;;15.10;99.90;;;;;;5061067;28;20375;-87
2022/07/16 03:28:10;;;;;;;7.10;2.22;;;15.10;99.90;;;;;;5040862;28;20102;-86
2022/07/16 03:30:37;;;;;;;10.15;2.60;;;15.10;99.90;;;;;;5070215;28;20042;-86
2022/07/16 03:33:03;;;;;;;15.57;3.47;;;15.10;99.90;;;;;;5075058;28;20380;-86
2022/07/16 03:35:29;;;;;;;9.40;2.85;;;15.10;99.90;;;;;;5091903;28;20033;-87
2022/07/16 03:40:40;;;;;;;5.70;2.38;;;15.00;99.90;;;;;;5059113;28;20051;-86
2022/07/16 03:43:06;;;;;;;9.50;2.35;;;15.00;99.90;;;;;;5074819;28;20049;-87
2022/07/16 03:45:32;;;;;;;5.78;1.73;;;15.00;99.90;;;;;;5040911;28;20553;-87
2022/07/16 03:47:58;;;;;;;7.20;1.98;;;15.00;99.90;;;;;;5041608;28;20045;-87
2022/07/16 03:50:24;;;;;;;7.78;1.50;;;15.00;99.90;;;;;;5055500;28;20456;-87
2022/07/16 03:52:56;;;;;;;7.47;1.95;;;14.90;99.90;;;;;;5085817;28;20039;-86
2022/07/16 03:55:21;;;;;;;8.60;1.77;;;14.90;99.90;;;;;;5034678;28;20051;-87
2022/07/16 03:57:47;;;;;;;9.02;1.70;;;14.90;99.90;;;;;;5061585;28;20047;-86
2022/07/16 04:00:13;;;;;;;4.55;1.60;;;14.90;99.90;;;;;;5075065;28;20044;-87
2022/07/16 04:02:39;;;;;;;7.75;2.63;;;14.90;99.90;;;;;;5059062;28;20075;-87
2022/07/16 04:05:09;;;;;;;6.70;1.83;;;14.90;99.90;;;;;;5051166;28;20032;-86
2022/07/16 04:07:35;;;;;;;7.25;1.75;;;14.90;99.90;;;;;;5052208;28;20554;-87
2022/07/16 04:10:02;;;;;;;8.55;1.65;;;14.80;99.90;;;;;;5055722;28;20036;-87
2022/07/16 04:12:27;;;;;;;6.85;2.00;;;14.90;99.90;;;;;;5070781;28;20039;-87
2022/07/16 04:14:57;;;;;;;6.35;1.70;;;14.80;99.90;;;;;;5067163;28;20032;-86
2022/07/16 04:17:32;;;;;;;5.88;1.67;;;14.80;99.90;;;;;;5054402;28;20447;-88
2022/07/16 04:19:58;;;;;;;8.48;2.22;;;14.80;99.90;;;;;;5035003;23;20192;-58
2022/07/16 04:22:24;;;;;;;6.55;1.95;;;14.80;99.90;;;;;;5047852;28;20120;-58
2022/07/16 04:24:49;;;;;;;6.32;1.50;;;14.80;99.90;;;;;;5029627;28;20041;-57
2022/07/16 04:27:15;;;;;;;5.97;1.83;;;14.70;99.90;;;;;;5047799;28;20040;-58
2022/07/16 04:29:41;;;;;;;5.10;1.75;;;14.70;99.90;;;;;;5047957;28;20032;-58
2022/07/16 04:32:06;;;;;;;5.55;1.55;;;14.70;99.90;;;;;;5046906;28;20407;-57
2022/07/16 04:34:32;;;;;;;11.32;1.98;;;14.70;99.90;;;;;;5046887;28;20040;-58
2022/07/16 04:36:58;;;;;;;7.47;1.92;;;14.70;99.90;;;;;;5047179;28;20060;-58
2022/07/16 04:39:23;;;;;;;6.93;1.90;;;14.70;99.90;;;;;;5024495;28;20099;-58
2022/07/16 04:41:49;;;;;;;15.38;2.72;;;14.80;99.90;;;;;;5046913;28;20068;-57
2022/07/16 04:44:15;;;;;;;11.07;2.13;;;14.80;99.90;;;;;;5047715;28;20484;-59
2022/07/16 04:46:41;;;;;;;5.75;2.08;;;14.90;99.90;;;;;;5048270;28;20040;-58
2022/07/16 04:49:06;;;;;;;7.72;1.75;;;14.90;99.90;;;;;;5044852;28;20511;-58
2022/07/16 04:51:32;;;;;;;5.40;1.77;;;14.90;99.90;;;;;;5044182;28;20029;-58
2022/07/16 04:53:58;;;;;;;7.22;1.63;;;14.90;99.90;;;;;;5045585;28;20037;-58
2022/07/16 04:56:23;;;;;;;6.20;1.40;;;14.90;99.90;;;;;;5044795;28;20088;-58
2022/07/16 04:58:49;;;;;;;8.70;2.30;;;14.90;99.90;;;;;;5047885;28;20043;-58
2022/07/16 05:01:15;;;;;;;6.20;1.52;;;14.90;99.90;;;;;;5038644;28;20077;-57
2022/07/16 05:03:40;;;;;;;5.20;1.52;;;14.90;99.90;;;;;;5046489;28;20060;-57
2022/07/16 05:06:06;;;;;;;6.72;1.60;;;14.90;99.90;;;;;;5042387;28;20037;-58
2022/07/16 05:08:32;;;;;;;5.63;1.20;;;14.90;99.90;;;;;;5048403;28;20037;-59
2022/07/16 05:10:57;;;;;;;5.68;1.50;;;14.90;99.90;;;;;;5049091;28;20033;-58
2022/07/16 05:13:23;;;;;;;7.53;1.90;;;15.00;99.90;;;;;;5049272;28;20037;-58
2022/07/16 05:15:49;;;;;;;5.15;1.65;;;15.00;99.90;;;;;;5050472;28;20045;-57
2022/07/16 05:18:15;;;;;;;5.15;1.60;;;15.00;99.90;;;;;;5049117;28;20045;-57
2022/07/16 05:20:40;;;;;;;4.20;1.10;;;15.00;99.90;;;;;;5052229;28;20040;-58
2022/07/16 05:23:06;;;;;;;7.03;1.73;;;15.10;99.90;;;;;;5052586;28;20045;-57
2022/07/16 05:25:32;;;;;;;5.28;1.55;;;15.10;99.90;;;;;;5052130;28;20025;-57
2022/07/16 05:27:58;;;;;;;4.95;1.30;;;15.10;99.90;;;;;;5051398;28;20041;-58
2022/07/16 05:30:23;;;;;;;6.82;1.20;;;15.10;99.90;;;;;;5031297;28;20041;-58
2022/07/16 05:32:50;;;;;;;7.60;1.60;;;15.20;99.90;;;;;;5050399;28;20523;-58
2022/07/16 05:35:16;;;;;;;4.72;1.10;;;15.20;99.90;;;;;;5029160;28;20038;-59
2022/07/16 05:37:43;;;;;;;4.65;1.25;;;15.30;99.90;;;;;;5065435;28;20464;-57
2022/07/16 05:40:10;;;;;;;4.38;1.10;;;15.30;99.90;;;;;;5050123;28;20041;-54
2022/07/16 05:42:36;;;;;;;5.28;1.17;;;15.30;99.90;;;;;;5051470;28;20511;-58
2022/07/16 05:45:02;;;;;;;7.63;2.45;;;15.30;99.90;;;;;;5049742;28;20041;-58
2022/07/16 05:47:28;;;;;;;3.88;1.23;;;15.30;99.90;;;;;;5051141;28;20037;-57
2022/07/16 05:49:54;;;;;;;7.18;1.20;;;15.30;99.90;;;;;;5049553;28;20040;-58
2022/07/16 05:52:19;;;;;;;8.43;1.30;;;15.40;99.90;;;;;;5044229;28;20052;-58
2022/07/16 05:54:45;;;;;;;4.40;1.20;;;15.40;99.90;;;;;;5050577;28;20120;-58
2022/07/16 05:57:11;;;;;;;5.95;1.38;;;15.50;99.90;;;;;;5049635;28;20102;-59
2022/07/16 05:59:36;;;;;;;5.65;1.08;;;15.50;99.90;;;;;;5050227;28;20076;-58
2022/07/16 06:02:02;;;;;;;5.40;1.15;;;15.50;99.90;;;;;;5049378;28;20086;-57
2022/07/16 06:04:28;;;;;;;6.95;1.25;;;15.60;99.90;;;;;;5059746;23;20566;-56
2022/07/16 06:06:55;;;;;;;6.07;1.55;;;15.60;99.90;;;;;;5067493;28;20376;-54
2022/07/16 06:09:21;;;;;;;6.18;1.30;;;15.60;99.90;;;;;;5086401;28;20094;-56
2022/07/16 06:11:47;;;;;;;6.55;1.35;;;15.60;99.90;;;;;;5069875;28;20446;-55
2022/07/16 06:14:12;;;;;;;3.88;1.80;;;15.60;99.90;;;;;;5067500;28;20276;-55
2022/07/16 06:16:41;;;;;;;5.63;1.20;;;15.70;99.90;;;;;;5071111;28;20032;-53
2022/07/16 06:19:08;;;;;;;4.80;1.40;;;15.90;99.90;;;;;;5069987;28;20072;-56
2022/07/16 06:21:33;;;;;;;8.98;1.35;;;16.10;99.90;;;;;;5068709;28;20032;-54
2022/07/16 06:23:59;;;;;;;5.88;1.23;;;16.20;99.90;;;;;;5070723;28;20090;-54
2022/07/16 06:26:25;;;;;;;10.05;1.38;;;16.20;99.90;;;;;;5069283;28;20052;-54
2022/07/16 06:28:50;;;;;;;6.97;1.27;;;16.20;99.90;;;;;;5085781;28;20445;-53
2022/07/16 06:31:16;;;;;;;3.97;1.42;;;16.30;99.90;;;;;;5067447;28;20044;-56
2022/07/16 06:33:42;;;;;;;3.45;0.90;;;16.30;99.90;;;;;;5066439;28;20028;-56
2022/07/16 06:36:07;;;;;;;6.47;1.15;;;16.30;99.90;;;;;;5050626;28;20045;-57
2022/07/16 06:38:33;;;;;;;3.60;1.00;;;16.20;99.90;;;;;;5063276;28;20406;-56
2022/07/16 06:40:59;;;;;;;3.67;1.00;;;16.30;99.90;;;;;;5065382;28;20036;-54
2022/07/16 06:43:25;;;;;;;6.80;0.90;;;16.40;99.90;;;;;;5070755;28;20444;-54
2022/07/16 06:45:50;;;;;;;6.85;1.17;;;16.50;99.90;;;;;;5070025;28;20039;-55
2022/07/16 06:48:16;;;;;;;3.22;0.73;;;16.50;99.90;;;;;;5069314;28;20415;-56
2022/07/16 06:50:42;;;;;;;6.57;1.00;;;16.50;99.90;;;;;;5069228;28;20043;-55
2022/07/16 06:53:08;;;;;;;5.85;0.80;;;16.60;99.90;;;;;;5065417;28;20033;-56
2022/07/16 06:55:34;;;;;;;2.80;0.77;;;16.50;99.90;;;;;;5078308;28;20109;-56
2022/07/16 06:57:59;;;;;;;5.78;0.90;;;16.50;99.90;;;;;;5056440;28;20486;-55
2022/07/16 07:00:25;;;;;;;4.95;1.00;;;16.60;99.80;;;;;;5032999;28;20051;-56
2022/07/16 07:02:51;;;;;;;5.60;1.30;;;16.60;99.90;;;;;;5052209;28;20037;-54
2022/07/16 07:05:17;;;;;;;3.50;0.80;;;16.80;99.90;;;;;;5070534;28;20040;-55
2022/07/16 07:07:43;;;;;;;5.88;0.90;;;16.80;99.90;;;;;;5065923;28;20040;-52
2022/07/16 07:10:09;;;;;;;2.97;0.90;;;16.90;99.80;;;;;;5066270;28;20028;-54
2022/07/16 07:12:35;;;;;;;4.43;0.93;;;17.00;99.50;;;;;;5069863;28;20490;-55
2022/07/16 07:15:01;;;;;;;5.68;1.20;;;17.00;99.50;;;;;;5068344;28;20094;-52
2022/07/16 07:17:27;;;;;;;6.22;1.30;;;17.10;99.20;;;;;;5068208;28;20045;-56
2022/07/16 07:19:53;;;;;;;4.90;1.08;;;17.00;99.00;;;;;;5067455;28;20044;-52
2022/07/16 07:22:18;;;;;;;4.65;0.80;;;17.10;98.50;;;;;;5068345;28;20055;-54
2022/07/16 07:24:44;;;;;;;4.65;0.98;;;17.20;98.70;;;;;;5057219;28;20041;-55
2022/07/16 07:27:10;;;;;;;5.88;1.20;;;17.20;98.30;;;;;;5067209;28;20040;-57
2022/07/16 07:29:37;;;;;;;6.50;0.93;;;17.30;97.90;;;;;;5056971;28;20067;-54
2022/07/16 07:32:03;;;;;;;3.45;0.88;;;17.30;97.70;;;;;;5062637;28;20062;-53
2022/07/16 07:34:29;;;;;;;2.60;0.70;;;17.30;96.70;;;;;;5049657;28;20040;-53
2022/07/16 07:36:55;;;;;;;4.32;0.80;;;17.30;97.50;;;;;;5068413;28;20047;-55
2022/07/16 07:39:21;;;;;;;5.45;1.00;;;17.50;97.20;;;;;;5068093;28;20068;-52
2022/07/16 07:41:46;;;;;;;6.28;0.98;;;17.70;97.70;;;;;;5068596;28;20105;-59
2022/07/16 07:44:12;;;;;;;4.85;1.27;;;17.90;97.40;;;;;;5065196;28;20052;-54
2022/07/16 07:46:38;;;;;;;8.82;1.02;;;17.90;97.30;;;;;;5069148;28;20068;-52
2022/07/16 07:49:08;;;;;;;3.47;1.00;;;17.80;97.10;;;;;;5067913;28;20033;-56
2022/07/16 07:51:34;;;;;;;3.88;0.88;;;17.70;97.30;;;;;;5067005;28;20139;-57
2022/07/16 07:54:00;;;;;;;5.10;1.48;;;17.60;97.70;;;;;;5018622;28;20040;-56
2022/07/16 07:56:28;;;;;;;6.25;1.23;;;17.50;98.20;;;;;;5067838;28;20481;-57
2022/07/16 07:58:54;;;;;;;6.15;1.38;;;17.50;98.50;;;;;;5062741;28;20506;-54
2022/07/16 08:01:20;;;;;;;4.75;1.25;;;17.40;98.50;;;;;;5067414;28;20048;-54
2022/07/16 08:03:46;;;;;;;6.55;1.60;;;17.40;98.90;;;;;;5048173;28;20051;-54
2022/07/16 08:06:11;;;;;;;7.57;1.20;;;17.30;99.30;;;;;;5066718;28;20044;-56
2022/07/16 08:08:37;;;;;;;5.82;1.00;;;17.20;99.50;;;;;;5044546;28;20081;-55
2022/07/16 08:11:03;;;;;;;3.85;1.40;;;17.30;99.30;;;;;;5068355;28;20494;-55
2022/07/16 08:13:28;;;;;;;6.22;1.38;;;17.40;99.40;;;;;;5067436;28;20067;-54
2022/07/16 08:15:54;;;;;;;7.10;1.77;;;17.50;99.30;;;;;;5067179;28;20040;-57
2022/07/16 08:18:20;;;;;;;5.93;1.20;;;17.60;98.90;;;;;;5068913;28;20055;-56
2022/07/16 08:20:46;;;;;;;11.13;1.52;;;17.50;99.10;;;;;;5068141;28;20071;-54
2022/07/16 08:23:11;;;;;;;6.85;1.42;;;17.60;99.30;;;;;;5068356;28;20036;-57
2022/07/16 08:25:46;;;;;;;3.40;0.93;;;17.90;98.90;;;;;;5067248;28;20101;-55
2022/07/16 08:28:13;;;;;;;4.80;1.13;;;18.00;98.70;;;;;;5051083;28;20040;-55
2022/07/16 08:30:40;;;;;;;9.70;1.45;;;18.20;98.40;;;;;;5081486;28;20164;-56
2022/07/16 08:33:05;;;;;;;6.80;1.38;;;18.40;98.20;;;;;;5068667;28;20032;-54
2022/07/16 08:35:31;;;;;;;5.40;1.67;;;18.50;98.00;;;;;;5068487;28;20574;-55
2022/07/16 08:37:57;;;;;;;8.93;1.98;;;18.70;98.30;;;;;;5070087;28;20040;-56
2022/07/16 08:40:23;;;;;;;2.95;0.98;;;18.40;96.30;;;;;;5069370;28;20028;-57
2022/07/16 08:42:50;;;;;;;3.33;0.88;;;18.40;96.70;;;;;;5084490;28;20032;-58
2022/07/16 08:45:18;;;;;;;6.85;1.88;;;18.50;96.70;;;;;;5053951;28;20049;-57
2022/07/16 08:47:44;;;;;;;5.15;1.25;;;18.50;96.00;;;;;;5069687;28;20474;-55
2022/07/16 08:50:15;;;;;;;8.55;1.48;;;18.60;96.50;;;;;;5068405;28;20068;-54
2022/07/16 08:52:52;;;;;;;7.43;1.23;;;18.80;96.50;;;;;;5066738;28;20123;-55
2022/07/16 08:55:21;;;;;;;4.43;1.25;;;18.90;96.10;;;;;;5066717;28;20041;-56
2022/07/16 08:57:48;;;;;;;5.80;1.75;;;18.60;96.30;;;;;;5066522;28;20116;-51
2022/07/16 09:00:15;;;;;;;7.03;1.50;;;18.80;96.60;;;;;;5054750;28;20048;-53
2022/07/16 09:02:41;;;;;;;3.15;1.13;;;18.80;96.40;;;;;;5067120;28;20040;-56
2022/07/16 09:05:08;;;;;;;5.53;1.20;;;18.60;96.90;;;;;;5063748;28;20053;-57
2022/07/16 09:07:34;;;;;;;8.13;1.33;;;18.60;97.10;;;;;;5066536;28;20099;-56
2022/07/16 09:10:00;;;;;;;6.75;1.15;;;18.40;96.80;;;;;;5063722;28;20040;-55
2022/07/16 09:12:41;;;;;;;4.60;1.25;;;18.30;96.80;;;;;;5063600;28;20044;-55
2022/07/16 09:15:45;;;;;;;5.72;1.90;;;18.20;96.80;;;;;;5053153;28;20451;-57
2022/07/16 09:18:15;;;;;;;4.85;1.13;;;18.30;96.50;;;;;;5063380;28;20098;-57
2022/07/16 09:20:51;;;;;;;5.18;1.10;;;18.60;96.80;;;;;;5066809;28;20040;-56
2022/07/16 09:23:35;;;;;;;5.65;1.20;;;18.80;96.90;;;;;;5065528;28;20048;-55
2022/07/16 09:26:04;;;;;;;5.80;1.00;;;19.10;96.10;;;;;;5062633;28;20041;-55
2022/07/16 09:28:43;;;;;;;7.93;1.50;;;19.10;96.30;;;;;;5067946;28;20137;-56
2022/07/16 09:31:10;;;;;;;8.43;1.60;;;19.00;96.10;;;;;;5064902;28;20044;-55
2022/07/16 09:33:36;;;;;;;5.75;1.25;;;18.90;97.10;;;;;;5066972;28;20514;-56
2022/07/16 09:36:12;;;;;;;3.50;1.00;;;19.10;97.00;;;;;;5066972;28;20091;-56
2022/07/16 09:38:55;;;;;;;7.05;1.55;;;19.30;96.80;;;;;;5067012;28;20036;-56
2022/07/16 09:41:21;;;;;;;6.60;1.63;;;19.40;97.00;;;;;;5067657;28;20410;-57
2022/07/16 09:43:48;;;;;;;5.18;1.38;;;19.50;96.90;;;;;;5068750;28;20044;-55
2022/07/16 09:46:19;;;;;;;7.63;1.35;;;19.40;96.90;;;;;;5060411;28;20400;-56
2022/07/16 09:48:46;;;;;;;7.70;1.25;;;19.40;96.80;;;;;;5063815;28;20249;-56
2022/07/16 09:51:13;;;;;;;9.32;1.55;;;19.00;96.70;;;;;;5066827;28;20044;-56
2022/07/16 09:53:40;;;;;;;11.13;2.00;;;18.70;97.10;;;;;;5082910;28;20098;-56
2022/07/16 09:56:13;;;;;;;7.55;1.20;;;18.70;97.70;;;;;;5069657;28;20036;-57
2022/07/16 09:58:38;;;;;;;6.85;1.30;;;18.90;97.90;;;;;;5070271;28;20044;-57
2022/07/16 10:01:05;;;;;;;6.32;1.63;;;19.30;97.40;;;;;;5064385;28;20051;-56
2022/07/16 10:03:31;;;;;;;5.88;1.50;;;19.40;97.40;;;;;;5069444;28;20128;-56
2022/07/16 10:05:57;;;;;;;6.60;1.15;;;19.20;97.20;;;;;;5069417;28;20567;-55
2022/07/16 10:08:24;;;;;;;4.78;1.17;;;19.30;97.00;;;;;;5068719;28;20048;-55
2022/07/16 10:10:50;;;;;;;6.60;1.17;;;19.30;96.40;;;;;;5069549;28;20429;-54
2022/07/16 10:13:18;;;;;;;5.75;1.67;;;19.10;95.90;;;;;;5056776;28;20099;-52
2022/07/16 10:15:46;;;;;;;2.75;0.98;;;19.10;95.90;;;;;;5069313;28;20226;-56
2022/07/16 10:18:57;;;;;;;10.43;1.75;;;19.40;96.30;;;;;;5060908;28;20036;-57
2022/07/16 10:21:23;;;;;;;4.40;1.38;;;19.50;95.30;;;;;;4988611;28;20046;-56
2022/07/16 10:24:13;;;;;;;4.00;1.17;;;19.70;95.40;;;;;;4974682;28;20089;-55
2022/07/16 10:26:40;;;;;;;7.18;1.55;;;19.80;94.80;;;;;;5030821;28;20053;-57
2022/07/16 10:29:06;;;;;;;6.43;1.30;;;19.70;95.40;;;;;;5068898;28;20047;-57
2022/07/16 10:31:34;;;;;;;4.65;1.20;;;19.80;95.20;;;;;;5065705;28;20098;-57
2022/07/16 10:34:16;;;;;;;4.88;1.90;;;19.90;94.60;;;;;;5085133;28;20028;-53
2022/07/16 10:36:55;;;;;;;7.32;1.38;;;19.90;93.80;;;;;;5061656;28;20046;-58
2022/07/16 10:39:25;;;;;;;3.40;1.00;;;19.90;93.80;;;;;;5069732;28;20513;-57
2022/07/16 10:41:59;;;;;;;3.67;0.98;;;19.90;94.00;;;;;;5069503;28;20080;-56
2022/07/16 10:44:44;;;;;;;3.78;1.10;;;20.00;93.70;;;;;;5068842;28;20454;-55
2022/07/16 10:47:11;;;;;;;5.10;1.20;;;19.90;93.70;;;;;;5067886;28;20073;-53
2022/07/16 10:49:37;;;;;;;5.22;1.30;;;19.90;93.50;;;;;;5070201;28;20032;-54
2022/07/16 10:52:11;;;;;;;3.72;1.15;;;20.10;93.00;;;;;;5069488;28;20042;-56
2022/07/16 10:54:41;;;;;;;5.95;1.50;;;20.30;92.60;;;;;;5064397;28;20120;-53
2022/07/16 10:57:07;;;;;;;5.43;1.17;;;20.40;91.70;;;;;;5068301;28;20054;-56
2022/07/16 10:59:36;;;;;;;5.45;1.42;;;20.60;91.90;;;;;;5068656;28;20533;-54
2022/07/16 11:02:05;;;;;;;4.30;1.27;;;20.70;89.90;;;;;;5070474;28;20045;-53
2022/07/16 11:04:39;;;;;;;5.00;1.20;;;20.70;90.40;;;;;;5069372;28;20043;-56
2022/07/16 11:07:13;;;;;;;6.20;2.08;;;20.90;91.10;;;;;;5042978;28;20033;-52
2022/07/16 11:09:44;;;;;;;5.78;1.48;;;21.00;90.80;;;;;;5044274;28;20025;-56
2022/07/16 11:12:14;;;;;;;5.68;1.33;;;20.40;90.50;;;;;;5068604;28;20033;-54
2022/07/16 11:14:41;;;;;;;6.90;1.50;;;20.50;91.30;;;;;;5067978;28;20079;-55
2022/07/16 11:17:07;;;;;;;8.43;1.55;;;20.70;91.30;;;;;;5063641;28;20044;-57
2022/07/16 11:19:42;;;;;;;9.75;1.75;;;20.90;90.70;;;;;;5067474;28;20125;-56
2022/07/16 11:22:09;;;;;;;5.63;1.50;;;21.10;90.00;;;;;;5068272;28;20487;-56
2022/07/16 11:24:35;;;;;;;4.28;1.08;;;21.10;90.50;;;;;;5069636;28;20110;-56
2022/07/16 11:27:02;;;;;;;5.00;1.35;;;21.10;90.10;;;;;;5086250;28;20052;-54
2022/07/16 11:29:29;;;;;;;4.60;1.48;;;21.30;90.80;;;;;;5067067;28;20131;-56
2022/07/16 11:31:56;;;;;;;6.15;1.60;;;21.30;90.40;;;;;;5035686;28;20369;-57
2022/07/16 11:34:22;;;;;;;7.60;1.42;;;21.00;91.40;;;;;;5065676;28;20391;-54
2022/07/16 11:36:53;;;;;;;6.70;1.55;;;20.80;91.60;;;;;;5067421;28;20056;-54
2022/07/16 11:39:25;;;;;;;6.35;1.67;;;20.60;91.50;;;;;;5042564;28;20396;-54
2022/07/16 11:41:53;;;;;;;7.82;1.55;;;20.50;91.60;;;;;;5069114;28;20064;-54
2022/07/16 11:44:31;;;;;;;9.27;1.80;;;20.40;92.50;;;;;;5068196;28;20705;-56
2022/07/16 11:46:58;;;;;;;4.38;1.40;;;20.40;92.80;;;;;;5085735;28;20045;-56
2022/07/16 11:49:29;;;;;;;9.02;1.63;;;20.30;93.30;;;;;;5067181;28;20036;-56
2022/07/16 11:51:58;;;;;;;7.07;1.60;;;20.40;93.30;;;;;;5067152;28;20035;-55
2022/07/16 11:54:25;;;;;;;8.45;2.58;;;20.40;92.80;;;;;;5067979;28;20048;-55
2022/07/16 11:56:51;;;;;;;6.32;2.03;;;20.40;92.20;;;;;;5069015;28;20051;-56
2022/07/16 11:59:28;;;;;;;9.35;1.83;;;20.10;92.20;;;;;;5083909;28;20045;-56
2022/07/16 12:02:06;;;;;;;6.43;1.70;;;20.50;91.90;;;;;;5063820;28;20506;-56
2022/07/16 12:04:43;;;;;;;5.18;1.25;;;20.70;92.20;;;;;;5083672;28;20288;-56
2022/07/16 12:07:11;;;;;;;5.32;1.20;;;20.80;91.10;;;;;;5044029;23;20045;-59
2022/07/16 12:09:39;;;;;;;7.32;2.20;;;20.50;91.00;;;;;;5046534;28;20049;-57
2022/07/16 12:12:09;;;;;;;3.30;1.35;;;20.00;91.20;;;;;;5041172;28;20125;-58
2022/07/16 12:14:53;;;;;;;3.58;1.13;;;20.10;91.80;;;;;;5042177;28;20477;-56
2022/07/16 12:17:24;;;;;;;7.35;1.35;;;20.10;90.30;;;;;;5048902;28;20474;-59
2022/07/16 12:20:20;;;;;;;8.38;1.50;;;20.30;91.50;;;;;;5047560;28;20106;-57
2022/07/16 12:22:51;;;;;;;6.07;1.35;;;20.40;91.80;;;;;;5057607;28;20037;-57
2022/07/16 12:25:21;;;;;;;6.53;1.67;;;20.80;91.80;;;;;;5041504;28;20186;-60
2022/07/16 12:27:50;;;;;;;9.05;2.63;;;20.80;91.20;;;;;;5049182;28;20117;-56
2022/07/16 12:30:16;;;;;;;8.73;1.65;;;20.80;90.70;;;;;;5049090;28;20079;-57
2022/07/16 12:32:50;;;;;;;9.68;1.50;;;21.30;91.80;;;;;;5049030;28;20052;-58
2022/07/16 12:35:38;;;;;;;7.50;1.45;;;21.40;90.20;;;;;;5040150;28;20040;-59
2022/07/16 12:38:05;;;;;;;9.25;1.45;;;21.50;89.50;;;;;;5047969;28;20064;-55
2022/07/16 12:40:32;;;;;;;6.55;1.30;;;21.10;87.20;;;;;;5038194;28;20052;-58
2022/07/16 12:43:00;;;;;;;6.82;1.30;;;21.30;90.70;;;;;;5049024;28;20755;-57
2022/07/16 12:45:26;;;;;;;6.40;1.42;;;21.50;90.60;;;;;;5049355;28;20373;-59
2022/07/16 12:47:52;;;;;;;3.80;1.02;;;21.60;90.30;;;;;;5048647;28;20116;-58
2022/07/16 12:50:18;;;;;;;4.18;1.20;;;21.20;88.00;;;;;;5030562;28;20174;-59
2022/07/16 12:52:44;;;;;;;5.32;1.40;;;20.70;86.40;;;;;;5048247;28;20520;-59